This is the latest recevied weather packets stored in our database for station/object NUUKSIO. If no packets are shown the sender has not sent any weather packets the latest 10 day(s).
| Time | Temp. | Humidity | Pressure | Rain* | Wind** | Luminosity | Snow |
|---|---|---|---|---|---|---|---|
| 1777966036 | 11.11° C | 64% | 1000.8 hPa | 0 mm | - | - | - |
| 1777964836 | 11.11° C | 66% | 1000.6 hPa | 0 mm | - | - | - |
| 1777963636 | 10° C | 66% | 1000.6 hPa | 0 mm | - | - | - |
| 1777962436 | 9.44° C | 73% | 1000.5 hPa | 0 mm | - | - | - |
| 1777961236 | 8.89° C | 78% | 1000.5 hPa | 0 mm | - | - | - |
| 1777960035 | 7.78° C | 85% | 1000.6 hPa | 0 mm | - | - | - |
| 1777958835 | 7.22° C | 90% | 1000.8 hPa | 0 mm | - | - | - |
| 1777957635 | 6.11° C | 92% | 1000.8 hPa | 0 mm | - | - | - |
| 1777956435 | 5.56° C | 97% | 1000.9 hPa | 0 mm | - | - | - |
| 1777955235 | 5° C | 98% | 1001 hPa | 0 mm | - | - | - |
| 1777954035 | 5° C | 99% | 1001.1 hPa | 0 mm | - | - | - |
| 1777952835 | 5° C | 99% | 1001 hPa | 0 mm | - | - | - |
| 1777951635 | 5° C | 100% | 1001.1 hPa | 0 mm | - | - | - |
| 1777950435 | 5° C | 100% | 1001.4 hPa | 0 mm | - | - | - |
| 1777949235 | 5° C | 99% | 1001.4 hPa | 0 mm | - | - | - |
| 1777948035 | 5° C | 99% | 1001.4 hPa | 0 mm | - | - | - |
| 1777946835 | 5.56° C | 99% | 1001.6 hPa | 0 mm | - | - | - |
| 1777945634 | 5.56° C | 98% | 1002 hPa | 0 mm | - | - | - |
| 1777944435 | 6.11° C | 98% | 1002.4 hPa | 0 mm | - | - | - |
| 1777943234 | 6.11° C | 99% | 1002.3 hPa | 0 mm | - | - | - |
| 1777942034 | 6.67° C | 99% | 1002.3 hPa | 0 mm | - | - | - |
| 1777940834 | 6.67° C | 99% | 1002.2 hPa | 0 mm | - | - | - |
| 1777939634 | 6.67° C | 99% | 1002.2 hPa | 0 mm | - | - | - |
| 1777938435 | 6.67° C | 100% | 1002.4 hPa | 0 mm | - | - | - |
| 1777937235 | 6.67° C | 100% | 1002.3 hPa | 0 mm | - | - | - |
* Rain latest hour (hover to see other rain measurements)
** Current wind speed in m/s (hover to see current wind gust speed)